sensor_id;sensor_type;location;lat;lon;timestamp;temperature;humidity
44863;DHT22;30597;49.628;10.850;2022-12-18T00:00:28;18.30;50.00
44863;DHT22;30597;49.628;10.850;2022-12-18T00:02:55;18.20;50.10
44863;DHT22;30597;49.628;10.850;2022-12-18T00:05:20;18.20;50.10
44863;DHT22;30597;49.628;10.850;2022-12-18T00:07:46;18.10;50.00
44863;DHT22;30597;49.628;10.850;2022-12-18T00:10:11;18.10;50.30
44863;DHT22;30597;49.628;10.850;2022-12-18T00:12:37;18.10;50.20
44863;DHT22;30597;49.628;10.850;2022-12-18T00:15:03;18.00;49.90
44863;DHT22;30597;49.628;10.850;2022-12-18T00:17:28;17.90;50.10
44863;DHT22;30597;49.628;10.850;2022-12-18T00:19:54;17.90;50.50
44863;DHT22;30597;49.628;10.850;2022-12-18T00:22:20;17.80;50.10
44863;DHT22;30597;49.628;10.850;2022-12-18T00:24:45;17.90;50.40
44863;DHT22;30597;49.628;10.850;2022-12-18T00:27:11;17.90;50.50
44863;DHT22;30597;49.628;10.850;2022-12-18T00:29:37;17.80;50.20
44863;DHT22;30597;49.628;10.850;2022-12-18T00:32:02;17.70;50.40
44863;DHT22;30597;49.628;10.850;2022-12-18T00:34:31;17.70;50.30
44863;DHT22;30597;49.628;10.850;2022-12-18T00:36:56;17.70;50.40
44863;DHT22;30597;49.628;10.850;2022-12-18T00:39:22;17.70;50.60
44863;DHT22;30597;49.628;10.850;2022-12-18T00:41:48;17.60;50.50
44863;DHT22;30597;49.628;10.850;2022-12-18T00:44:32;17.60;50.50
44863;DHT22;30597;49.628;10.850;2022-12-18T00:46:58;17.60;50.50
44863;DHT22;30597;49.628;10.850;2022-12-18T00:49:24;17.50;50.60
44863;DHT22;30597;49.628;10.850;2022-12-18T00:51:50;17.50;50.70
44863;DHT22;30597;49.628;10.850;2022-12-18T00:54:16;17.50;50.60
44863;DHT22;30597;49.628;10.850;2022-12-18T00:56:42;17.40;51.40
44863;DHT22;30597;49.628;10.850;2022-12-18T00:59:07;17.50;50.70
44863;DHT22;30597;49.628;10.850;2022-12-18T01:01:34;17.50;50.80
44863;DHT22;30597;49.628;10.850;2022-12-18T01:04:01;17.40;50.70
44863;DHT22;30597;49.628;10.850;2022-12-18T01:06:27;17.40;50.90
44863;DHT22;30597;49.628;10.850;2022-12-18T01:08:53;17.30;50.60
44863;DHT22;30597;49.628;10.850;2022-12-18T01:11:19;17.30;50.60
44863;DHT22;30597;49.628;10.850;2022-12-18T01:13:45;17.20;50.90
44863;DHT22;30597;49.628;10.850;2022-12-18T01:16:13;17.30;51.00
44863;DHT22;30597;49.628;10.850;2022-12-18T01:18:39;17.20;51.10
44863;DHT22;30597;49.628;10.850;2022-12-18T01:21:09;17.20;51.10
44863;DHT22;30597;49.628;10.850;2022-12-18T01:23:35;17.20;51.30
44863;DHT22;30597;49.628;10.850;2022-12-18T01:26:08;17.20;51.30
44863;DHT22;30597;49.628;10.850;2022-12-18T01:28:35;17.20;51.30
44863;DHT22;30597;49.628;10.850;2022-12-18T01:31:25;17.10;51.20
44863;DHT22;30597;49.628;10.850;2022-12-18T01:33:53;17.10;51.40
44863;DHT22;30597;49.628;10.850;2022-12-18T01:36:22;17.10;51.60
44863;DHT22;30597;49.628;10.850;2022-12-18T01:38:49;17.10;51.60
44863;DHT22;30597;49.628;10.850;2022-12-18T01:41:17;17.00;51.70
44863;DHT22;30597;49.628;10.850;2022-12-18T01:43:45;16.90;51.50
44863;DHT22;30597;49.628;10.850;2022-12-18T01:46:12;16.90;51.70
44863;DHT22;30597;49.628;10.850;2022-12-18T01:48:38;16.90;51.70
44863;DHT22;30597;49.628;10.850;2022-12-18T01:51:06;16.80;51.60
44863;DHT22;30597;49.628;10.850;2022-12-18T01:53:34;16.80;51.70
44863;DHT22;30597;49.628;10.850;2022-12-18T01:56:01;16.80;51.90
44863;DHT22;30597;49.628;10.850;2022-12-18T01:58:37;16.80;51.80
44863;DHT22;30597;49.628;10.850;2022-12-18T02:01:05;16.70;51.90
44863;DHT22;30597;49.628;10.850;2022-12-18T02:03:31;16.80;51.90
44863;DHT22;30597;49.628;10.850;2022-12-18T02:06:16;16.70;51.90
44863;DHT22;30597;49.628;10.850;2022-12-18T02:11:49;16.60;52.10
44863;DHT22;30597;49.628;10.850;2022-12-18T02:14:38;16.60;52.20
44863;DHT22;30597;49.628;10.850;2022-12-18T02:27:50;16.40;52.30
44863;DHT22;30597;49.628;10.850;2022-12-18T02:30:16;16.50;52.40
44863;DHT22;30597;49.628;10.850;2022-12-18T02:32:47;16.40;52.40
44863;DHT22;30597;49.628;10.850;2022-12-18T02:35:23;16.40;52.40
44863;DHT22;30597;49.628;10.850;2022-12-18T02:37:51;16.40;52.50
44863;DHT22;30597;49.628;10.850;2022-12-18T02:40:21;16.30;52.50
44863;DHT22;30597;49.628;10.850;2022-12-18T02:42:47;16.30;52.40
44863;DHT22;30597;49.628;10.850;2022-12-18T02:45:14;16.30;52.30
44863;DHT22;30597;49.628;10.850;2022-12-18T02:47:44;16.20;52.50
44863;DHT22;30597;49.628;10.850;2022-12-18T02:50:35;16.30;52.70
44863;DHT22;30597;49.628;10.850;2022-12-18T02:53:36;16.20;52.60
44863;DHT22;30597;49.628;10.850;2022-12-18T02:56:17;16.20;52.70
44863;DHT22;30597;49.628;10.850;2022-12-18T03:05:01;16.10;52.70
44863;DHT22;30597;49.628;10.850;2022-12-18T03:10:26;16.10;53.00
44863;DHT22;30597;49.628;10.850;2022-12-18T03:13:03;16.10;52.90
44863;DHT22;30597;49.628;10.850;2022-12-18T03:15:34;16.10;53.10
44863;DHT22;30597;49.628;10.850;2022-12-18T03:18:30;16.10;53.10
44863;DHT22;30597;49.628;10.850;2022-12-18T03:21:02;16.00;53.20
44863;DHT22;30597;49.628;10.850;2022-12-18T03:23:33;16.00;53.00
44863;DHT22;30597;49.628;10.850;2022-12-18T03:26:03;16.00;52.80
44863;DHT22;30597;49.628;10.850;2022-12-18T03:28:33;16.00;53.00
44863;DHT22;30597;49.628;10.850;2022-12-18T03:31:01;15.90;52.80
44863;DHT22;30597;49.628;10.850;2022-12-18T03:33:34;15.90;53.00
44863;DHT22;30597;49.628;10.850;2022-12-18T03:36:03;15.90;53.00
44863;DHT22;30597;49.628;10.850;2022-12-18T03:38:28;15.90;53.00
44863;DHT22;30597;49.628;10.850;2022-12-18T03:43:59;15.80;53.20
44863;DHT22;30597;49.628;10.850;2022-12-18T03:46:30;15.80;53.40
44863;DHT22;30597;49.628;10.850;2022-12-18T03:49:09;15.80;53.40
44863;DHT22;30597;49.628;10.850;2022-12-18T03:51:47;15.80;53.50
44863;DHT22;30597;49.628;10.850;2022-12-18T03:54:15;15.80;53.70
44863;DHT22;30597;49.628;10.850;2022-12-18T03:56:50;15.80;53.80
44863;DHT22;30597;49.628;10.850;2022-12-18T03:59:17;15.80;53.60
44863;DHT22;30597;49.628;10.850;2022-12-18T04:01:51;15.80;53.70
44863;DHT22;30597;49.628;10.850;2022-12-18T04:04:19;15.80;53.50
44863;DHT22;30597;49.628;10.850;2022-12-18T04:06:47;15.80;54.00
44863;DHT22;30597;49.628;10.850;2022-12-18T04:09:35;15.80;53.90
44863;DHT22;30597;49.628;10.850;2022-12-18T04:12:02;15.90;54.20
44863;DHT22;30597;49.628;10.850;2022-12-18T04:14:27;15.90;53.60
44863;DHT22;30597;49.628;10.850;2022-12-18T04:16:53;16.10;53.80
44863;DHT22;30597;49.628;10.850;2022-12-18T04:19:18;16.20;53.40
44863;DHT22;30597;49.628;10.850;2022-12-18T04:21:44;16.20;53.10
44863;DHT22;30597;49.628;10.850;2022-12-18T04:24:10;16.30;53.00
44863;DHT22;30597;49.628;10.850;2022-12-18T04:26:35;16.40;53.30
44863;DHT22;30597;49.628;10.850;2022-12-18T04:29:01;16.50;53.30
44863;DHT22;30597;49.628;10.850;2022-12-18T04:31:27;16.50;53.10
44863;DHT22;30597;49.628;10.850;2022-12-18T04:33:53;16.60;53.00
44863;DHT22;30597;49.628;10.850;2022-12-18T04:36:18;16.70;53.00
44863;DHT22;30597;49.628;10.850;2022-12-18T04:38:44;16.80;52.90
44863;DHT22;30597;49.628;10.850;2022-12-18T04:41:12;16.80;53.10
44863;DHT22;30597;49.628;10.850;2022-12-18T04:43:41;16.80;53.00
44863;DHT22;30597;49.628;10.850;2022-12-18T04:46:08;16.80;52.70
44863;DHT22;30597;49.628;10.850;2022-12-18T04:48:34;16.90;52.80
44863;DHT22;30597;49.628;10.850;2022-12-18T04:51:00;17.00;52.70
44863;DHT22;30597;49.628;10.850;2022-12-18T04:53:26;17.00;52.70
44863;DHT22;30597;49.628;10.850;2022-12-18T04:56:03;17.00;52.40
44863;DHT22;30597;49.628;10.850;2022-12-18T04:58:29;17.10;52.60
44863;DHT22;30597;49.628;10.850;2022-12-18T05:00:54;17.20;52.50
44863;DHT22;30597;49.628;10.850;2022-12-18T05:03:20;17.30;52.50
44863;DHT22;30597;49.628;10.850;2022-12-18T05:05:49;17.20;52.30
44863;DHT22;30597;49.628;10.850;2022-12-18T05:08:15;17.30;52.60
44863;DHT22;30597;49.628;10.850;2022-12-18T05:10:41;17.30;52.40
44863;DHT22;30597;49.628;10.850;2022-12-18T05:13:07;17.40;52.30
44863;DHT22;30597;49.628;10.850;2022-12-18T05:15:33;17.40;52.10
44863;DHT22;30597;49.628;10.850;2022-12-18T05:17:59;17.50;52.20
44863;DHT22;30597;49.628;10.850;2022-12-18T05:20:26;17.50;52.10
44863;DHT22;30597;49.628;10.850;2022-12-18T05:22:52;17.50;52.10
44863;DHT22;30597;49.628;10.850;2022-12-18T05:25:18;17.60;52.10
44863;DHT22;30597;49.628;10.850;2022-12-18T05:27:44;17.60;51.90
44863;DHT22;30597;49.628;10.850;2022-12-18T05:30:11;17.60;52.00
44863;DHT22;30597;49.628;10.850;2022-12-18T05:32:37;17.70;51.90
44863;DHT22;30597;49.628;10.850;2022-12-18T05:35:03;17.70;51.80
44863;DHT22;30597;49.628;10.850;2022-12-18T05:37:29;17.80;52.20
44863;DHT22;30597;49.628;10.850;2022-12-18T05:39:55;17.80;51.80
44863;DHT22;30597;49.628;10.850;2022-12-18T05:42:21;17.90;51.80
44863;DHT22;30597;49.628;10.850;2022-12-18T05:44:46;17.90;51.60
44863;DHT22;30597;49.628;10.850;2022-12-18T05:47:12;17.90;51.60
44863;DHT22;30597;49.628;10.850;2022-12-18T05:49:38;17.90;51.90
44863;DHT22;30597;49.628;10.850;2022-12-18T05:52:04;17.80;51.20
44863;DHT22;30597;49.628;10.850;2022-12-18T05:54:29;17.90;51.00
44863;DHT22;30597;49.628;10.850;2022-12-18T05:56:56;17.80;51.00
44863;DHT22;30597;49.628;10.850;2022-12-18T05:59:22;17.80;51.10
44863;DHT22;30597;49.628;10.850;2022-12-18T06:01:47;17.80;52.00
44863;DHT22;30597;49.628;10.850;2022-12-18T06:04:13;17.80;51.40
44863;DHT22;30597;49.628;10.850;2022-12-18T06:06:39;17.80;51.30
44863;DHT22;30597;49.628;10.850;2022-12-18T06:09:04;17.80;51.30
44863;DHT22;30597;49.628;10.850;2022-12-18T06:11:34;17.80;51.10
44863;DHT22;30597;49.628;10.850;2022-12-18T06:14:01;17.90;51.50
44863;DHT22;30597;49.628;10.850;2022-12-18T06:16:29;17.80;51.20
44863;DHT22;30597;49.628;10.850;2022-12-18T06:19:17;17.70;51.40
44863;DHT22;30597;49.628;10.850;2022-12-18T06:21:43;17.80;51.70
44863;DHT22;30597;49.628;10.850;2022-12-18T06:24:09;17.70;51.50
44863;DHT22;30597;49.628;10.850;2022-12-18T06:26:38;17.70;51.80
44863;DHT22;30597;49.628;10.850;2022-12-18T06:29:04;17.80;51.80
44863;DHT22;30597;49.628;10.850;2022-12-18T06:31:30;17.80;52.20
44863;DHT22;30597;49.628;10.850;2022-12-18T06:34:03;17.70;51.30
44863;DHT22;30597;49.628;10.850;2022-12-18T06:36:29;17.80;51.50
44863;DHT22;30597;49.628;10.850;2022-12-18T06:38:56;17.70;51.50
44863;DHT22;30597;49.628;10.850;2022-12-18T06:41:22;17.70;51.70
44863;DHT22;30597;49.628;10.850;2022-12-18T06:43:48;17.70;51.70
44863;DHT22;30597;49.628;10.850;2022-12-18T06:46:15;17.70;51.70
44863;DHT22;30597;49.628;10.850;2022-12-18T06:48:41;17.70;52.30
44863;DHT22;30597;49.628;10.850;2022-12-18T06:51:08;17.70;51.90
44863;DHT22;30597;49.628;10.850;2022-12-18T06:53:35;17.60;51.70
44863;DHT22;30597;49.628;10.850;2022-12-18T06:56:07;17.70;51.80
44863;DHT22;30597;49.628;10.850;2022-12-18T06:58:33;17.70;51.90
44863;DHT22;30597;49.628;10.850;2022-12-18T07:01:08;17.70;51.70
44863;DHT22;30597;49.628;10.850;2022-12-18T07:03:37;17.80;51.70
44863;DHT22;30597;49.628;10.850;2022-12-18T07:06:03;17.90;51.60
44863;DHT22;30597;49.628;10.850;2022-12-18T07:08:30;17.90;51.30
44863;DHT22;30597;49.628;10.850;2022-12-18T07:10:56;18.10;51.80
44863;DHT22;30597;49.628;10.850;2022-12-18T07:13:22;18.30;51.40
44863;DHT22;30597;49.628;10.850;2022-12-18T07:15:48;18.30;51.20
44863;DHT22;30597;49.628;10.850;2022-12-18T07:18:13;18.40;51.00
44863;DHT22;30597;49.628;10.850;2022-12-18T07:20:39;18.50;50.80
44863;DHT22;30597;49.628;10.850;2022-12-18T07:23:05;18.50;50.50
44863;DHT22;30597;49.628;10.850;2022-12-18T07:25:36;18.60;50.60
44863;DHT22;30597;49.628;10.850;2022-12-18T07:28:04;18.80;50.60
44863;DHT22;30597;49.628;10.850;2022-12-18T07:30:30;18.70;50.10
44863;DHT22;30597;49.628;10.850;2022-12-18T07:32:55;18.80;50.00
44863;DHT22;30597;49.628;10.850;2022-12-18T07:35:21;18.80;50.30
44863;DHT22;30597;49.628;10.850;2022-12-18T07:37:46;18.90;50.10
44863;DHT22;30597;49.628;10.850;2022-12-18T07:40:12;18.90;49.90
44863;DHT22;30597;49.628;10.850;2022-12-18T07:42:38;19.00;49.80
44863;DHT22;30597;49.628;10.850;2022-12-18T07:45:05;19.10;49.80
44863;DHT22;30597;49.628;10.850;2022-12-18T07:47:30;19.10;49.60
44863;DHT22;30597;49.628;10.850;2022-12-18T07:49:56;19.00;49.50
44863;DHT22;30597;49.628;10.850;2022-12-18T07:52:22;19.10;49.50
44863;DHT22;30597;49.628;10.850;2022-12-18T07:54:47;19.10;49.60
44863;DHT22;30597;49.628;10.850;2022-12-18T07:57:15;19.20;49.70
44863;DHT22;30597;49.628;10.850;2022-12-18T07:59:41;19.20;49.80
44863;DHT22;30597;49.628;10.850;2022-12-18T08:02:08;19.20;49.60
44863;DHT22;30597;49.628;10.850;2022-12-18T08:04:35;19.30;49.70
44863;DHT22;30597;49.628;10.850;2022-12-18T08:07:00;19.30;49.50
44863;DHT22;30597;49.628;10.850;2022-12-18T08:09:26;19.40;49.40
44863;DHT22;30597;49.628;10.850;2022-12-18T08:11:52;19.30;49.40
44863;DHT22;30597;49.628;10.850;2022-12-18T08:14:17;19.40;49.50
44863;DHT22;30597;49.628;10.850;2022-12-18T08:16:43;19.50;49.40
44863;DHT22;30597;49.628;10.850;2022-12-18T08:19:10;19.50;49.30
44863;DHT22;30597;49.628;10.850;2022-12-18T08:21:35;19.60;49.40
44863;DHT22;30597;49.628;10.850;2022-12-18T08:24:03;19.60;49.20
44863;DHT22;30597;49.628;10.850;2022-12-18T08:26:30;19.60;48.90
44863;DHT22;30597;49.628;10.850;2022-12-18T08:28:58;19.70;49.10
44863;DHT22;30597;49.628;10.850;2022-12-18T08:31:25;19.70;49.00
44863;DHT22;30597;49.628;10.850;2022-12-18T08:33:52;19.70;48.90
44863;DHT22;30597;49.628;10.850;2022-12-18T08:36:19;19.70;48.90
44863;DHT22;30597;49.628;10.850;2022-12-18T08:38:45;19.80;48.70
44863;DHT22;30597;49.628;10.850;2022-12-18T08:41:12;19.80;48.80
44863;DHT22;30597;49.628;10.850;2022-12-18T08:43:39;19.80;48.70
44863;DHT22;30597;49.628;10.850;2022-12-18T08:46:25;19.90;48.60
44863;DHT22;30597;49.628;10.850;2022-12-18T08:48:52;19.90;48.70
44863;DHT22;30597;49.628;10.850;2022-12-18T08:51:18;19.90;48.50
44863;DHT22;30597;49.628;10.850;2022-12-18T08:53:44;20.00;48.50
44863;DHT22;30597;49.628;10.850;2022-12-18T08:56:11;20.00;48.40
44863;DHT22;30597;49.628;10.850;2022-12-18T08:58:37;20.00;48.40
44863;DHT22;30597;49.628;10.850;2022-12-18T09:01:05;20.10;48.20
44863;DHT22;30597;49.628;10.850;2022-12-18T09:03:31;20.10;48.20
44863;DHT22;30597;49.628;10.850;2022-12-18T09:05:56;20.10;48.10
44863;DHT22;30597;49.628;10.850;2022-12-18T09:08:22;20.20;48.20
44863;DHT22;30597;49.628;10.850;2022-12-18T09:10:49;20.10;48.10
44863;DHT22;30597;49.628;10.850;2022-12-18T09:13:16;20.10;48.30
44863;DHT22;30597;49.628;10.850;2022-12-18T09:15:48;20.20;48.20
44863;DHT22;30597;49.628;10.850;2022-12-18T09:18:16;20.20;48.40
44863;DHT22;30597;49.628;10.850;2022-12-18T09:20:42;20.20;48.30
44863;DHT22;30597;49.628;10.850;2022-12-18T09:23:08;20.20;47.90
44863;DHT22;30597;49.628;10.850;2022-12-18T09:25:34;20.20;47.70
44863;DHT22;30597;49.628;10.850;2022-12-18T09:28:02;20.20;47.70
44863;DHT22;30597;49.628;10.850;2022-12-18T09:30:28;20.20;47.60
44863;DHT22;30597;49.628;10.850;2022-12-18T09:32:55;20.30;47.50
44863;DHT22;30597;49.628;10.850;2022-12-18T09:35:21;20.30;47.50
44863;DHT22;30597;49.628;10.850;2022-12-18T09:37:47;20.30;47.50
44863;DHT22;30597;49.628;10.850;2022-12-18T09:40:18;20.30;47.30
44863;DHT22;30597;49.628;10.850;2022-12-18T09:42:47;20.40;47.50
44863;DHT22;30597;49.628;10.850;2022-12-18T09:45:15;20.30;47.00
44863;DHT22;30597;49.628;10.850;2022-12-18T09:47:43;20.30;46.90
44863;DHT22;30597;49.628;10.850;2022-12-18T09:50:21;20.40;47.20
44863;DHT22;30597;49.628;10.850;2022-12-18T09:52:51;20.40;47.30
44863;DHT22;30597;49.628;10.850;2022-12-18T09:55:42;20.40;47.50
44863;DHT22;30597;49.628;10.850;2022-12-18T09:58:14;20.40;47.30
44863;DHT22;30597;49.628;10.850;2022-12-18T10:00:42;20.40;47.60
44863;DHT22;30597;49.628;10.850;2022-12-18T10:03:13;20.40;47.50
44863;DHT22;30597;49.628;10.850;2022-12-18T10:06:06;20.50;47.80
44863;DHT22;30597;49.628;10.850;2022-12-18T10:08:59;20.50;47.70
44863;DHT22;30597;49.628;10.850;2022-12-18T10:11:51;20.50;47.80
44863;DHT22;30597;49.628;10.850;2022-12-18T10:14:36;20.50;47.90
44863;DHT22;30597;49.628;10.850;2022-12-18T10:19:56;20.30;47.70
44863;DHT22;30597;49.628;10.850;2022-12-18T10:25:33;20.40;47.80
44863;DHT22;30597;49.628;10.850;2022-12-18T10:28:10;20.30;47.60
44863;DHT22;30597;49.628;10.850;2022-12-18T10:30:39;20.40;48.00
44863;DHT22;30597;49.628;10.850;2022-12-18T10:33:05;20.30;47.90
44863;DHT22;30597;49.628;10.850;2022-12-18T10:35:32;20.20;47.80
44863;DHT22;30597;49.628;10.850;2022-12-18T10:43:30;20.10;47.80
44863;DHT22;30597;49.628;10.850;2022-12-18T10:51:24;20.00;47.10
44863;DHT22;30597;49.628;10.850;2022-12-18T10:54:00;20.10;47.40
44863;DHT22;30597;49.628;10.850;2022-12-18T10:56:29;20.10;46.90
44863;DHT22;30597;49.628;10.850;2022-12-18T10:58:57;20.10;46.90
44863;DHT22;30597;49.628;10.850;2022-12-18T11:01:25;20.10;46.90
44863;DHT22;30597;49.628;10.850;2022-12-18T11:06:20;20.20;46.70
44863;DHT22;30597;49.628;10.850;2022-12-18T11:09:07;20.20;46.70
44863;DHT22;30597;49.628;10.850;2022-12-18T11:11:59;20.20;46.60
44863;DHT22;30597;49.628;10.850;2022-12-18T11:14:34;20.30;46.50
44863;DHT22;30597;49.628;10.850;2022-12-18T11:17:31;20.30;46.40
44863;DHT22;30597;49.628;10.850;2022-12-18T11:20:04;20.30;46.40
44863;DHT22;30597;49.628;10.850;2022-12-18T11:22:36;20.40;46.30
44863;DHT22;30597;49.628;10.850;2022-12-18T11:27:38;20.40;46.10
44863;DHT22;30597;49.628;10.850;2022-12-18T11:30:31;20.30;46.10
44863;DHT22;30597;49.628;10.850;2022-12-18T11:33:14;20.40;46.10
44863;DHT22;30597;49.628;10.850;2022-12-18T11:38:32;20.40;45.50
44863;DHT22;30597;49.628;10.850;2022-12-18T11:45:03;20.60;45.60
44863;DHT22;30597;49.628;10.850;2022-12-18T11:50:50;20.60;45.70
44863;DHT22;30597;49.628;10.850;2022-12-18T11:53:19;20.60;45.80
44863;DHT22;30597;49.628;10.850;2022-12-18T11:56:36;20.70;45.90
44863;DHT22;30597;49.628;10.850;2022-12-18T12:09:24;20.80;46.10
44863;DHT22;30597;49.628;10.850;2022-12-18T12:15:23;20.70;46.10
44863;DHT22;30597;49.628;10.850;2022-12-18T12:19:40;20.70;46.20
44863;DHT22;30597;49.628;10.850;2022-12-18T12:25:46;20.70;46.50
44863;DHT22;30597;49.628;10.850;2022-12-18T12:40:44;20.60;46.60
44863;DHT22;30597;49.628;10.850;2022-12-18T12:43:20;20.60;46.80
44863;DHT22;30597;49.628;10.850;2022-12-18T12:46:10;20.50;46.50
44863;DHT22;30597;49.628;10.850;2022-12-18T13:07:17;20.70;47.00
44863;DHT22;30597;49.628;10.850;2022-12-18T13:13:07;20.80;47.10
44863;DHT22;30597;49.628;10.850;2022-12-18T13:15:46;20.80;47.20
44863;DHT22;30597;49.628;10.850;2022-12-18T13:18:18;20.80;47.20
44863;DHT22;30597;49.628;10.850;2022-12-18T13:21:01;20.80;47.10
44863;DHT22;30597;49.628;10.850;2022-12-18T13:23:36;20.80;47.30
44863;DHT22;30597;49.628;10.850;2022-12-18T13:28:56;20.90;47.50
44863;DHT22;30597;49.628;10.850;2022-12-18T13:34:30;20.90;47.60
44863;DHT22;30597;49.628;10.850;2022-12-18T13:37:40;20.90;47.60
44863;DHT22;30597;49.628;10.850;2022-12-18T13:43:48;20.80;47.50
44863;DHT22;30597;49.628;10.850;2022-12-18T13:46:42;20.80;47.10
44863;DHT22;30597;49.628;10.850;2022-12-18T13:52:16;20.40;39.80
44863;DHT22;30597;49.628;10.850;2022-12-18T13:55:43;20.20;40.40
44863;DHT22;30597;49.628;10.850;2022-12-18T13:58:42;20.10;41.50
44863;DHT22;30597;49.628;10.850;2022-12-18T14:01:54;19.90;42.20
44863;DHT22;30597;49.628;10.850;2022-12-18T14:05:20;19.90;42.60
44863;DHT22;30597;49.628;10.850;2022-12-18T14:08:48;19.90;42.80
44863;DHT22;30597;49.628;10.850;2022-12-18T14:12:50;20.00;42.90
44863;DHT22;30597;49.628;10.850;2022-12-18T14:21:00;20.20;43.20
44863;DHT22;30597;49.628;10.850;2022-12-18T14:23:44;20.20;43.30
44863;DHT22;30597;49.628;10.850;2022-12-18T14:26:36;20.30;43.40
44863;DHT22;30597;49.628;10.850;2022-12-18T14:29:27;20.30;43.50
44863;DHT22;30597;49.628;10.850;2022-12-18T14:32:26;20.30;43.50
44863;DHT22;30597;49.628;10.850;2022-12-18T14:35:12;20.40;43.50
44863;DHT22;30597;49.628;10.850;2022-12-18T14:37:47;20.30;43.80
44863;DHT22;30597;49.628;10.850;2022-12-18T14:40:13;20.40;43.70
44863;DHT22;30597;49.628;10.850;2022-12-18T14:42:45;20.40;43.70
44863;DHT22;30597;49.628;10.850;2022-12-18T14:45:38;20.40;43.60
44863;DHT22;30597;49.628;10.850;2022-12-18T14:48:11;20.40;43.90
44863;DHT22;30597;49.628;10.850;2022-12-18T14:50:41;20.30;43.90
44863;DHT22;30597;49.628;10.850;2022-12-18T14:53:31;20.30;43.90
44863;DHT22;30597;49.628;10.850;2022-12-18T14:56:21;20.30;43.80
44863;DHT22;30597;49.628;10.850;2022-12-18T14:59:26;20.30;44.00
44863;DHT22;30597;49.628;10.850;2022-12-18T15:02:01;20.30;44.00
44863;DHT22;30597;49.628;10.850;2022-12-18T15:04:34;20.30;43.90
44863;DHT22;30597;49.628;10.850;2022-12-18T15:07:21;20.40;44.20
44863;DHT22;30597;49.628;10.850;2022-12-18T15:12:42;20.40;44.20
44863;DHT22;30597;49.628;10.850;2022-12-18T15:18:12;20.40;44.10
44863;DHT22;30597;49.628;10.850;2022-12-18T15:20:53;20.40;44.20
44863;DHT22;30597;49.628;10.850;2022-12-18T15:25:54;20.40;44.00
44863;DHT22;30597;49.628;10.850;2022-12-18T15:31:02;20.40;43.90
44863;DHT22;30597;49.628;10.850;2022-12-18T15:33:36;20.40;43.90
44863;DHT22;30597;49.628;10.850;2022-12-18T15:36:05;20.50;44.00
44863;DHT22;30597;49.628;10.850;2022-12-18T15:38:33;20.50;43.90
44863;DHT22;30597;49.628;10.850;2022-12-18T15:40:59;20.40;43.60
44863;DHT22;30597;49.628;10.850;2022-12-18T15:43:25;20.50;43.80
44863;DHT22;30597;49.628;10.850;2022-12-18T15:46:02;20.50;43.90
44863;DHT22;30597;49.628;10.850;2022-12-18T15:48:35;20.40;43.80
44863;DHT22;30597;49.628;10.850;2022-12-18T15:51:07;20.50;43.90
44863;DHT22;30597;49.628;10.850;2022-12-18T15:53:34;20.40;43.90
44863;DHT22;30597;49.628;10.850;2022-12-18T15:56:00;20.50;43.90
44863;DHT22;30597;49.628;10.850;2022-12-18T15:58:45;20.40;44.00
44863;DHT22;30597;49.628;10.850;2022-12-18T16:01:11;20.40;44.00
44863;DHT22;30597;49.628;10.850;2022-12-18T16:03:37;20.40;44.00
44863;DHT22;30597;49.628;10.850;2022-12-18T16:06:02;20.40;44.10
44863;DHT22;30597;49.628;10.850;2022-12-18T16:08:29;20.30;44.20
44863;DHT22;30597;49.628;10.850;2022-12-18T16:10:56;20.30;45.50
44863;DHT22;30597;49.628;10.850;2022-12-18T16:13:22;20.30;45.50
44863;DHT22;30597;49.628;10.850;2022-12-18T16:15:52;20.30;45.70
44863;DHT22;30597;49.628;10.850;2022-12-18T16:18:17;20.30;46.10
44863;DHT22;30597;49.628;10.850;2022-12-18T16:20:43;20.30;45.60
44863;DHT22;30597;49.628;10.850;2022-12-18T16:23:08;20.20;45.50
44863;DHT22;30597;49.628;10.850;2022-12-18T16:25:35;20.30;46.20
44863;DHT22;30597;49.628;10.850;2022-12-18T16:28:01;20.30;46.40
44863;DHT22;30597;49.628;10.850;2022-12-18T16:30:31;20.30;46.80
44863;DHT22;30597;49.628;10.850;2022-12-18T16:33:01;20.30;47.50
44863;DHT22;30597;49.628;10.850;2022-12-18T16:35:36;20.40;48.00
44863;DHT22;30597;49.628;10.850;2022-12-18T16:38:04;20.30;47.50
44863;DHT22;30597;49.628;10.850;2022-12-18T16:40:31;20.30;46.40
44863;DHT22;30597;49.628;10.850;2022-12-18T16:42:57;20.30;46.40
44863;DHT22;30597;49.628;10.850;2022-12-18T16:45:22;20.30;46.20
44863;DHT22;30597;49.628;10.850;2022-12-18T16:47:48;20.30;46.30
44863;DHT22;30597;49.628;10.850;2022-12-18T16:50:14;20.30;46.20
44863;DHT22;30597;49.628;10.850;2022-12-18T16:52:41;20.20;46.20
44863;DHT22;30597;49.628;10.850;2022-12-18T16:55:10;20.10;46.20
44863;DHT22;30597;49.628;10.850;2022-12-18T16:57:36;20.00;46.30
44863;DHT22;30597;49.628;10.850;2022-12-18T17:00:03;19.90;46.30
44863;DHT22;30597;49.628;10.850;2022-12-18T17:02:32;19.90;46.50
44863;DHT22;30597;49.628;10.850;2022-12-18T17:04:57;19.90;46.50
44863;DHT22;30597;49.628;10.850;2022-12-18T17:07:24;19.90;46.50
44863;DHT22;30597;49.628;10.850;2022-12-18T17:09:50;19.90;46.70
44863;DHT22;30597;49.628;10.850;2022-12-18T17:12:18;19.90;46.50
44863;DHT22;30597;49.628;10.850;2022-12-18T17:14:44;20.00;46.40
44863;DHT22;30597;49.628;10.850;2022-12-18T17:17:09;20.00;46.30
44863;DHT22;30597;49.628;10.850;2022-12-18T17:19:35;20.00;46.20
44863;DHT22;30597;49.628;10.850;2022-12-18T17:22:01;20.10;46.60
44863;DHT22;30597;49.628;10.850;2022-12-18T17:24:27;20.10;46.60
44863;DHT22;30597;49.628;10.850;2022-12-18T17:26:53;20.20;46.70
44863;DHT22;30597;49.628;10.850;2022-12-18T17:29:19;20.20;46.60
44863;DHT22;30597;49.628;10.850;2022-12-18T17:31:46;20.30;46.90
44863;DHT22;30597;49.628;10.850;2022-12-18T17:34:12;20.30;46.80
44863;DHT22;30597;49.628;10.850;2022-12-18T17:36:38;20.40;46.80
44863;DHT22;30597;49.628;10.850;2022-12-18T17:39:06;20.40;46.60
44863;DHT22;30597;49.628;10.850;2022-12-18T17:41:32;20.40;46.40
44863;DHT22;30597;49.628;10.850;2022-12-18T17:44:00;20.50;46.90
44863;DHT22;30597;49.628;10.850;2022-12-18T17:46:28;20.40;46.10
44863;DHT22;30597;49.628;10.850;2022-12-18T17:48:56;20.50;45.90
44863;DHT22;30597;49.628;10.850;2022-12-18T17:51:22;20.50;45.90
44863;DHT22;30597;49.628;10.850;2022-12-18T17:53:48;20.40;45.60
44863;DHT22;30597;49.628;10.850;2022-12-18T17:56:16;20.40;45.30
44863;DHT22;30597;49.628;10.850;2022-12-18T17:58:42;20.40;45.50